Time;durP1;ratioP1;P1;durP2;ratioP2;P2;SDS_P1;SDS_P2;PMS_P1;PMS_P2;Temp;Humidity;BMP_temperature;BMP_pressure;BME280_temperature;BME280_humidity;BME280_pressure;Samples;Min_cycle;Max_cycle;Signal;HPM_P1;HPM_P2
2021/03/04 00:04:56;;;;;;;28.08;19.77;;;;;;;;;;10276558;28;20049;-62
2021/03/04 00:09:54;;;;;;;29.95;19.38;;;;;;;;;;10275997;28;20048;-62
2021/03/04 00:14:51;;;;;;;31.92;23.88;;;;;;;;;;10275992;28;20073;-62
2021/03/04 00:20:10;;;;;;;30.48;22.05;;;;;;;;;;10276264;28;20052;-62
2021/03/04 00:25:09;;;;;;;27.58;19.05;;;;;;;;;;10276840;28;20053;-62
2021/03/04 00:30:07;;;;;;;31.42;19.85;;;;;;;;;;10275754;28;20044;-62
2021/03/04 00:35:05;;;;;;;29.02;20.75;;;;;;;;;;10275933;28;20087;-62
2021/03/04 00:40:06;;;;;;;27.10;18.75;;;;;;;;;;10275693;28;20041;-62
2021/03/04 00:45:04;;;;;;;25.27;17.30;;;;;;;;;;10275474;28;20045;-63
2021/03/04 00:50:02;;;;;;;23.67;16.80;;;;;;;;;;10275806;28;20418;-62
2021/03/04 00:54:59;;;;;;;23.05;17.80;;;;;;;;;;10275492;28;20469;-63
2021/03/04 00:59:57;;;;;;;25.80;18.25;;;;;;;;;;10275356;28;20041;-62
2021/03/04 01:04:55;;;;;;;29.65;17.52;;;;;;;;;;10276045;28;20048;-62
2021/03/04 01:09:52;;;;;;;27.42;18.58;;;;;;;;;;10275113;28;20072;-62
2021/03/04 01:14:49;;;;;;;28.88;18.15;;;;;;;;;;10275008;28;20083;-63
2021/03/04 01:19:47;;;;;;;25.38;16.73;;;;;;;;;;10277569;28;20045;-63
2021/03/04 01:24:45;;;;;;;21.02;15.38;;;;;;;;;;10283217;28;20068;-60
2021/03/04 01:29:42;;;;;;;22.20;15.88;;;;;;;;;;10282942;28;20075;-61
2021/03/04 01:34:39;;;;;;;26.80;16.52;;;;;;;;;;10282315;28;20406;-61
2021/03/04 01:39:38;;;;;;;19.88;15.23;;;;;;;;;;10282547;28;20144;-62
2021/03/04 01:44:35;;;;;;;25.73;16.08;;;;;;;;;;10282094;28;20044;-62
2021/03/04 01:49:33;;;;;;;31.17;16.55;;;;;;;;;;10281803;28;20065;-62
2021/03/04 01:54:30;;;;;;;23.92;16.35;;;;;;;;;;10282076;28;20049;-61
2021/03/04 01:59:30;;;;;;;26.48;16.05;;;;;;;;;;10290178;28;20529;-61
2021/03/04 02:04:27;;;;;;;22.60;17.02;;;;;;;;;;10292422;28;20044;-61
2021/03/04 02:09:25;;;;;;;25.75;17.75;;;;;;;;;;10281001;28;20045;-61
2021/03/04 02:14:25;;;;;;;24.38;17.17;;;;;;;;;;10281291;28;20049;-61
2021/03/04 02:19:32;;;;;;;27.10;15.57;;;;;;;;;;10280333;28;20048;-61
2021/03/04 02:24:40;;;;;;;21.83;14.75;;;;;;;;;;10280974;28;20057;-61
2021/03/04 02:29:42;;;;;;;24.75;17.25;;;;;;;;;;10280240;28;20110;-61
2021/03/04 02:34:43;;;;;;;22.63;15.73;;;;;;;;;;10279835;28;20081;-61
2021/03/04 02:39:42;;;;;;;25.30;16.45;;;;;;;;;;10280182;28;20096;-61
2021/03/04 02:44:40;;;;;;;23.48;15.98;;;;;;;;;;10278750;28;20495;-61
2021/03/04 02:49:39;;;;;;;23.77;15.52;;;;;;;;;;10279944;28;20519;-62
2021/03/04 02:54:37;;;;;;;23.38;16.40;;;;;;;;;;10279789;28;20048;-61
2021/03/04 02:59:35;;;;;;;24.80;16.90;;;;;;;;;;10279145;28;20459;-61
2021/03/04 03:04:33;;;;;;;27.38;16.73;;;;;;;;;;10278913;28;20080;-61
2021/03/04 03:09:32;;;;;;;22.75;18.77;;;;;;;;;;10284943;28;20052;-62
2021/03/04 03:14:29;;;;;;;23.05;15.63;;;;;;;;;;10301534;28;20032;-61
2021/03/04 03:19:27;;;;;;;23.55;16.75;;;;;;;;;;10290868;28;20069;-60
2021/03/04 03:24:24;;;;;;;23.95;17.08;;;;;;;;;;10278775;28;20068;-61
2021/03/04 03:29:22;;;;;;;26.92;17.92;;;;;;;;;;10277553;28;20080;-61
2021/03/04 03:34:20;;;;;;;25.42;20.05;;;;;;;;;;10277672;28;20552;-61
2021/03/04 03:39:18;;;;;;;23.80;17.17;;;;;;;;;;10278160;28;20453;-61
2021/03/04 03:44:17;;;;;;;29.27;19.35;;;;;;;;;;10292801;28;20061;-61
2021/03/04 03:49:16;;;;;;;20.23;14.52;;;;;;;;;;10304114;28;20041;-61
2021/03/04 03:54:14;;;;;;;31.02;24.77;;;;;;;;;;10292332;28;20509;-62
2021/03/04 03:59:11;;;;;;;22.83;15.23;;;;;;;;;;10276679;28;20541;-62
2021/03/04 04:04:09;;;;;;;27.73;19.80;;;;;;;;;;10295310;28;20076;-62
2021/03/04 04:09:08;;;;;;;24.70;15.07;;;;;;;;;;10306709;28;20044;-62
2021/03/04 04:14:07;;;;;;;21.40;15.63;;;;;;;;;;10294148;28;20045;-63
2021/03/04 04:19:05;;;;;;;25.08;14.00;;;;;;;;;;10285541;28;20076;-62
2021/03/04 04:24:02;;;;;;;18.90;13.73;;;;;;;;;;10299524;28;20060;-62
2021/03/04 04:29:01;;;;;;;20.15;12.50;;;;;;;;;;10276109;28;20080;-62
2021/03/04 04:33:58;;;;;;;23.08;15.52;;;;;;;;;;10276996;28;20068;-57
2021/03/04 04:38:56;;;;;;;21.75;15.07;;;;;;;;;;10296457;28;20471;-55
2021/03/04 04:43:53;;;;;;;21.58;15.20;;;;;;;;;;10272564;28;20064;-58
2021/03/04 04:48:52;;;;;;;21.20;14.13;;;;;;;;;;10275560;28;20092;-57
2021/03/04 04:53:49;;;;;;;19.77;14.10;;;;;;;;;;10277911;28;20041;-56
2021/03/04 04:58:46;;;;;;;20.38;14.75;;;;;;;;;;10284506;28;20514;-63
2021/03/04 05:03:44;;;;;;;22.52;15.35;;;;;;;;;;10284416;28;20048;-63
2021/03/04 05:08:42;;;;;;;20.45;14.40;;;;;;;;;;10284334;28;20044;-63
2021/03/04 05:13:39;;;;;;;22.02;14.18;;;;;;;;;;10284262;28;20139;-63
2021/03/04 05:18:36;;;;;;;22.48;15.25;;;;;;;;;;10283801;28;20081;-62
2021/03/04 05:23:35;;;;;;;19.42;14.73;;;;;;;;;;10282649;28;20085;-62
2021/03/04 05:28:33;;;;;;;20.60;13.70;;;;;;;;;;10283555;28;20080;-62
2021/03/04 05:33:31;;;;;;;27.75;16.10;;;;;;;;;;10283281;28;20486;-62
2021/03/04 05:38:28;;;;;;;22.63;14.23;;;;;;;;;;10283286;28;20084;-59
2021/03/04 05:43:25;;;;;;;18.60;14.70;;;;;;;;;;10282852;28;20052;-60
2021/03/04 05:48:27;;;;;;;21.27;14.38;;;;;;;;;;10282589;28;20414;-58
2021/03/04 05:53:25;;;;;;;23.17;14.13;;;;;;;;;;10281445;28;20075;-58
2021/03/04 05:58:23;;;;;;;20.75;14.27;;;;;;;;;;10282333;28;20076;-59
2021/03/04 06:03:26;;;;;;;21.50;14.05;;;;;;;;;;10281993;28;20044;-61
2021/03/04 06:08:23;;;;;;;22.40;14.13;;;;;;;;;;10281914;28;20037;-57
2021/03/04 06:13:20;;;;;;;18.92;14.65;;;;;;;;;;10281670;28;20511;-56
2021/03/04 06:18:18;;;;;;;42.47;24.25;;;;;;;;;;10283021;28;20076;-53
2021/03/04 06:23:16;;;;;;;21.75;14.57;;;;;;;;;;10290264;28;20076;-55
2021/03/04 06:28:13;;;;;;;20.10;14.57;;;;;;;;;;10276571;28;20075;-53
2021/03/04 06:33:11;;;;;;;25.33;15.32;;;;;;;;;;10278437;28;20076;-55
2021/03/04 06:38:12;;;;;;;17.92;14.13;;;;;;;;;;10280697;28;20076;-53
2021/03/04 06:43:18;;;;;;;21.38;13.07;;;;;;;;;;10290788;28;20095;-56
2021/03/04 06:48:16;;;;;;;20.55;13.13;;;;;;;;;;10279617;28;20053;-56
2021/03/04 06:53:15;;;;;;;16.60;11.90;;;;;;;;;;10279928;28;20056;-55
2021/03/04 06:58:12;;;;;;;25.52;16.77;;;;;;;;;;10280021;28;20072;-55
2021/03/04 07:03:11;;;;;;;33.03;22.25;;;;;;;;;;10280144;28;20084;-56
2021/03/04 07:08:08;;;;;;;20.63;14.55;;;;;;;;;;10279673;28;20045;-56
2021/03/04 07:13:06;;;;;;;18.67;12.93;;;;;;;;;;10294110;28;20072;-57
2021/03/04 07:18:03;;;;;;;20.92;13.75;;;;;;;;;;10290011;28;20121;-54
2021/03/04 07:23:03;;;;;;;17.95;12.48;;;;;;;;;;10309750;28;20080;-55
2021/03/04 07:28:00;;;;;;;20.70;17.50;;;;;;;;;;10315580;28;20068;-57
2021/03/04 07:33:01;;;;;;;18.10;12.48;;;;;;;;;;10315590;28;20072;-55
2021/03/04 07:37:59;;;;;;;17.98;13.45;;;;;;;;;;10316924;28;20482;-56
2021/03/04 07:43:03;;;;;;;349.70;211.40;;;;;;;;;;10318861;28;20076;-55
2021/03/04 07:48:07;;;;;;;18.67;13.33;;;;;;;;;;10319131;28;20048;-54
2021/03/04 07:53:05;;;;;;;20.08;15.38;;;;;;;;;;10317661;28;20079;-55
2021/03/04 07:58:12;;;;;;;17.55;14.23;;;;;;;;;;10318211;28;20079;-57
2021/03/04 08:03:09;;;;;;;18.88;14.43;;;;;;;;;;10318644;28;20051;-55
2021/03/04 08:08:12;;;;;;;25.58;19.05;;;;;;;;;;10318134;28;20075;-56
2021/03/04 08:13:10;;;;;;;24.98;16.10;;;;;;;;;;10317913;28;20079;-53
2021/03/04 08:18:17;;;;;;;20.90;15.77;;;;;;;;;;10318042;28;20475;-48
2021/03/04 08:23:16;;;;;;;40.47;26.83;;;;;;;;;;10317058;28;20502;-52
2021/03/04 08:28:21;;;;;;;49.08;28.58;;;;;;;;;;10316734;28;20518;-56
2021/03/04 08:33:20;;;;;;;39.28;22.88;;;;;;;;;;10317671;28;20422;-55
2021/03/04 08:38:18;;;;;;;33.40;19.25;;;;;;;;;;10317193;28;20183;-54
2021/03/04 08:43:16;;;;;;;27.15;19.00;;;;;;;;;;10317055;28;20522;-54
2021/03/04 08:48:14;;;;;;;30.17;19.42;;;;;;;;;;10316988;28;20150;-56
2021/03/04 08:53:13;;;;;;;27.50;18.35;;;;;;;;;;10316964;28;20044;-54
2021/03/04 08:58:10;;;;;;;28.38;19.30;;;;;;;;;;10316662;28;20084;-54
2021/03/04 09:03:08;;;;;;;24.70;15.15;;;;;;;;;;10316601;28;20103;-56
2021/03/04 09:08:08;;;;;;;21.05;15.65;;;;;;;;;;10316641;28;20040;-51
2021/03/04 09:13:05;;;;;;;20.15;12.90;;;;;;;;;;10316452;28;20051;-55
2021/03/04 09:18:07;;;;;;;22.63;14.27;;;;;;;;;;10316494;28;20218;-55
2021/03/04 09:23:05;;;;;;;21.85;13.57;;;;;;;;;;10315351;28;20080;-57
2021/03/04 09:28:03;;;;;;;19.23;11.82;;;;;;;;;;10316242;28;20179;-58
2021/03/04 09:33:00;;;;;;;17.65;11.35;;;;;;;;;;10316212;28;20086;-54
2021/03/04 09:38:05;;;;;;;21.13;13.57;;;;;;;;;;10315988;28;20467;-56
2021/03/04 09:43:13;;;;;;;14.60;10.95;;;;;;;;;;10322305;28;20076;-55
2021/03/04 09:48:10;;;;;;;284.27;223.88;;;;;;;;;;10323540;28;20537;-58
2021/03/04 09:53:08;;;;;;;22.65;13.13;;;;;;;;;;10322793;28;20076;-58
2021/03/04 09:58:10;;;;;;;20.65;14.02;;;;;;;;;;10323013;28;20114;-58
2021/03/04 10:03:09;;;;;;;17.05;12.32;;;;;;;;;;10323024;28;20076;-55
2021/03/04 10:08:10;;;;;;;12.60;9.98;;;;;;;;;;10322663;28;20044;-57
2021/03/04 10:13:07;;;;;;;16.52;9.88;;;;;;;;;;10322306;28;20040;-57
2021/03/04 10:18:08;;;;;;;14.65;9.85;;;;;;;;;;10322231;28;20626;-57
2021/03/04 10:23:05;;;;;;;34.30;23.38;;;;;;;;;;10322495;28;20109;-56
2021/03/04 10:28:03;;;;;;;17.23;12.93;;;;;;;;;;10321724;28;20399;-58
2021/03/04 10:33:01;;;;;;;17.45;12.70;;;;;;;;;;10321646;28;20047;-58
2021/03/04 10:37:59;;;;;;;14.43;10.20;;;;;;;;;;10321506;28;20079;-56
2021/03/04 10:42:56;;;;;;;17.80;11.35;;;;;;;;;;10321282;28;20079;-57
2021/03/04 10:47:56;;;;;;;21.58;9.38;;;;;;;;;;10321396;28;20083;-56
2021/03/04 10:52:53;;;;;;;14.35;9.90;;;;;;;;;;10320372;28;20483;-57
2021/03/04 10:58:07;;;;;;;13.15;9.00;;;;;;;;;;10321115;28;20079;-57
2021/03/04 11:03:05;;;;;;;16.67;11.48;;;;;;;;;;10320832;28;20087;-55
2021/03/04 11:08:03;;;;;;;19.55;13.38;;;;;;;;;;10320332;28;20040;-58
2021/03/04 11:13:00;;;;;;;16.67;11.65;;;;;;;;;;10319277;28;20071;-59
2021/03/04 11:17:58;;;;;;;12.02;8.95;;;;;;;;;;10319788;28;20072;-57
2021/03/04 11:22:56;;;;;;;28.95;11.52;;;;;;;;;;10319054;28;20425;-56
2021/03/04 11:27:53;;;;;;;84.93;15.32;;;;;;;;;;10318325;28;20044;-57
2021/03/04 11:32:50;;;;;;;35.88;13.43;;;;;;;;;;10319317;28;20079;-57
2021/03/04 11:37:49;;;;;;;37.47;13.98;;;;;;;;;;10317091;28;20119;-56
2021/03/04 11:42:46;;;;;;;24.67;12.02;;;;;;;;;;10318990;28;20040;-57
2021/03/04 11:47:44;;;;;;;26.77;10.93;;;;;;;;;;10317979;28;20051;-58
2021/03/04 11:52:41;;;;;;;43.53;16.60;;;;;;;;;;10318557;28;20053;-57
2021/03/04 11:57:39;;;;;;;29.30;14.45;;;;;;;;;;10318443;28;20494;-55
2021/03/04 12:02:37;;;;;;;19.73;10.43;;;;;;;;;;10317090;28;20040;-55
2021/03/04 12:32:54;;;;;;;15.70;11.27;;;;;;;;;;10351827;27;20725;-54
2021/03/04 12:37:52;;;;;;;31.98;13.15;;;;;;;;;;10351979;28;20059;-53
2021/03/04 12:42:49;;;;;;;17.05;10.57;;;;;;;;;;10351222;28;20056;-54
2021/03/04 12:47:47;;;;;;;89.15;20.63;;;;;;;;;;10351593;28;20044;-55
2021/03/04 12:52:46;;;;;;;38.00;16.73;;;;;;;;;;10351381;28;20055;-55
2021/03/04 12:57:43;;;;;;;36.63;16.08;;;;;;;;;;10351092;28;20091;-55
2021/03/04 13:02:40;;;;;;;19.55;12.30;;;;;;;;;;10350677;28;20048;-56
2021/03/04 13:07:39;;;;;;;126.15;20.48;;;;;;;;;;10350816;28;20080;-55
2021/03/04 13:12:37;;;;;;;40.97;16.42;;;;;;;;;;10350002;28;20083;-55
2021/03/04 13:17:34;;;;;;;13.38;9.77;;;;;;;;;;10350108;28;20075;-57
2021/03/04 13:22:32;;;;;;;26.70;11.23;;;;;;;;;;10349654;28;20036;-55
2021/03/04 13:27:29;;;;;;;82.50;20.00;;;;;;;;;;10349529;28;20044;-52
2021/03/04 13:32:28;;;;;;;71.88;45.65;;;;;;;;;;10329715;28;20090;-55
2021/03/04 13:37:25;;;;;;;59.58;15.23;;;;;;;;;;10322210;28;20083;-55
2021/03/04 13:42:22;;;;;;;52.45;24.20;;;;;;;;;;10322071;28;20135;-54
2021/03/04 13:47:20;;;;;;;73.00;24.00;;;;;;;;;;10322297;28;20045;-53
2021/03/04 13:52:18;;;;;;;103.32;24.98;;;;;;;;;;10322410;28;20465;-57
2021/03/04 13:57:15;;;;;;;103.70;25.83;;;;;;;;;;10321973;28;20052;-57
2021/03/04 14:02:13;;;;;;;52.58;21.67;;;;;;;;;;10321849;28;20044;-57
2021/03/04 14:07:10;;;;;;;69.63;42.67;;;;;;;;;;10321806;28;20045;-57
2021/03/04 14:12:09;;;;;;;59.15;27.38;;;;;;;;;;10321531;28;20528;-58
2021/03/04 14:17:06;;;;;;;227.85;37.33;;;;;;;;;;10321373;28;20456;-57
2021/03/04 14:22:04;;;;;;;134.00;69.45;;;;;;;;;;10321111;28;20068;-57
2021/03/04 14:27:02;;;;;;;115.38;30.30;;;;;;;;;;10319787;28;20068;-57
2021/03/04 14:32:00;;;;;;;408.05;97.63;;;;;;;;;;10319958;28;20060;-58
2021/03/04 14:36:57;;;;;;;703.40;122.60;;;;;;;;;;10320542;28;20404;-58
2021/03/04 14:41:58;;;;;;;107.25;42.05;;;;;;;;;;10318572;28;20036;-58
2021/03/04 14:46:56;;;;;;;298.52;128.18;;;;;;;;;;10319855;28;20091;-59
2021/03/04 14:51:55;;;;;;;130.13;49.08;;;;;;;;;;10319801;28;20076;-56
2021/03/04 14:56:52;;;;;;;366.90;162.68;;;;;;;;;;10318548;28;20399;-58
2021/03/04 15:01:50;;;;;;;255.35;107.90;;;;;;;;;;10319402;28;20072;-58
2021/03/04 15:06:47;;;;;;;422.17;180.82;;;;;;;;;;10317277;28;20417;-59
2021/03/04 15:11:46;;;;;;;432.88;195.85;;;;;;;;;;10318954;28;20165;-56
2021/03/04 15:16:43;;;;;;;160.23;80.90;;;;;;;;;;10317540;28;20068;-55
2021/03/04 15:21:59;;;;;;;161.02;85.15;;;;;;;;;;10316733;28;20044;-53
2021/03/04 15:27:00;;;;;;;127.00;78.07;;;;;;;;;;10316694;28;20044;-55
2021/03/04 15:32:01;;;;;;;107.90;63.65;;;;;;;;;;10315848;28;20063;-57
2021/03/04 15:37:00;;;;;;;253.00;141.05;;;;;;;;;;10316645;28;20060;-56
2021/03/04 15:42:04;;;;;;;187.13;103.88;;;;;;;;;;10316445;28;20052;-52
2021/03/04 15:47:02;;;;;;;176.73;108.95;;;;;;;;;;10315583;28;20524;-54
2021/03/04 15:52:00;;;;;;;145.43;98.30;;;;;;;;;;10313420;28;20053;-52
2021/03/04 15:56:58;;;;;;;152.40;99.55;;;;;;;;;;10291823;28;20080;-55
2021/03/04 16:02:15;;;;;;;155.20;90.32;;;;;;;;;;10293478;28;20452;-58
2021/03/04 16:07:14;;;;;;;102.53;58.92;;;;;;;;;;10290063;28;20045;-56
2021/03/04 16:12:14;;;;;;;140.18;84.10;;;;;;;;;;10278443;28;20063;-54
2021/03/04 16:17:16;;;;;;;99.22;55.35;;;;;;;;;;10315221;28;20056;-51
2021/03/04 16:22:14;;;;;;;99.18;61.15;;;;;;;;;;10314962;28;20055;-53
2021/03/04 16:27:15;;;;;;;89.57;53.67;;;;;;;;;;10315417;28;20449;-55
2021/03/04 16:32:19;;;;;;;76.32;44.25;;;;;;;;;;10314354;28;20103;-56
2021/03/04 16:37:18;;;;;;;70.18;41.95;;;;;;;;;;10315084;28;20074;-56
2021/03/04 16:42:18;;;;;;;43.35;27.05;;;;;;;;;;10314929;28;20489;-55
2021/03/04 16:47:22;;;;;;;93.85;59.20;;;;;;;;;;10316512;28;20044;-52
2021/03/04 16:52:23;;;;;;;42.58;26.48;;;;;;;;;;10316729;28;20080;-56
2021/03/04 16:57:22;;;;;;;90.13;48.65;;;;;;;;;;10316605;28;20045;-56
2021/03/04 17:02:28;;;;;;;35.55;22.45;;;;;;;;;;10313966;28;20052;-57
2021/03/04 17:07:27;;;;;;;43.35;25.77;;;;;;;;;;10316750;28;20079;-57
2021/03/04 17:12:25;;;;;;;31.08;20.42;;;;;;;;;;10318724;28;20098;-56
2021/03/04 17:17:22;;;;;;;44.72;29.63;;;;;;;;;;10320171;28;20091;-56
2021/03/04 17:22:21;;;;;;;115.20;64.68;;;;;;;;;;10321824;28;20076;-56
2021/03/04 17:27:19;;;;;;;52.53;31.30;;;;;;;;;;10322065;28;20394;-57
2021/03/04 17:32:16;;;;;;;23.30;18.80;;;;;;;;;;10321904;28;20493;-57
2021/03/04 17:37:16;;;;;;;33.85;24.05;;;;;;;;;;10321038;28;20063;-57
2021/03/04 17:42:23;;;;;;;38.42;20.30;;;;;;;;;;10322674;28;20045;-56
2021/03/04 17:47:21;;;;;;;33.92;22.27;;;;;;;;;;10322291;28;20045;-57
2021/03/04 17:52:18;;;;;;;25.27;18.50;;;;;;;;;;10322218;28;20087;-59
2021/03/04 17:57:16;;;;;;;18.42;13.50;;;;;;;;;;10322210;28;20413;-56
2021/03/04 18:02:15;;;;;;;47.20;33.75;;;;;;;;;;10320908;28;20520;-55
2021/03/04 18:07:13;;;;;;;33.40;23.60;;;;;;;;;;10321707;28;20049;-61
2021/03/04 18:12:10;;;;;;;22.42;13.95;;;;;;;;;;10319426;28;20090;-57
2021/03/04 18:17:08;;;;;;;28.88;20.25;;;;;;;;;;10321436;28;20037;-58
2021/03/04 18:22:07;;;;;;;32.67;18.77;;;;;;;;;;10321205;28;20036;-58
2021/03/04 18:27:05;;;;;;;27.27;18.30;;;;;;;;;;10321016;28;20443;-57
2021/03/04 18:32:11;;;;;;;17.33;12.73;;;;;;;;;;10320788;28;20092;-57
2021/03/04 18:37:10;;;;;;;14.48;10.45;;;;;;;;;;10320569;28;20507;-56
2021/03/04 18:42:08;;;;;;;17.42;11.68;;;;;;;;;;10319399;28;20083;-56
2021/03/04 18:47:05;;;;;;;19.30;13.07;;;;;;;;;;10319412;28;20037;-58
2021/03/04 18:52:03;;;;;;;17.70;13.02;;;;;;;;;;10319952;28;20080;-57
2021/03/04 18:57:02;;;;;;;23.98;16.35;;;;;;;;;;10317834;28;20048;-58
2021/03/04 19:02:04;;;;;;;49.88;28.35;;;;;;;;;;10319632;28;20045;-56
2021/03/04 19:07:01;;;;;;;54.00;30.23;;;;;;;;;;10319522;28;20044;-58
2021/03/04 19:11:59;;;;;;;28.75;20.02;;;;;;;;;;10318221;28;20072;-57
2021/03/04 19:16:58;;;;;;;18.35;12.00;;;;;;;;;;10318964;28;20049;-57
2021/03/04 19:21:55;;;;;;;29.80;21.33;;;;;;;;;;10319318;28;20494;-57
2021/03/04 19:26:53;;;;;;;32.53;22.95;;;;;;;;;;10318555;28;20529;-57
2021/03/04 19:31:50;;;;;;;37.47;24.85;;;;;;;;;;10317671;28;20088;-57
2021/03/04 19:36:49;;;;;;;29.67;21.15;;;;;;;;;;10318220;28;20048;-58
2021/03/04 19:41:46;;;;;;;20.48;14.32;;;;;;;;;;10316888;28;20501;-56
2021/03/04 19:46:43;;;;;;;15.27;12.13;;;;;;;;;;10317937;28;20374;-56
2021/03/04 19:51:41;;;;;;;18.85;12.35;;;;;;;;;;10317679;28;20072;-56
2021/03/04 19:56:39;;;;;;;17.67;12.30;;;;;;;;;;10317918;28;20055;-56
2021/03/04 20:01:37;;;;;;;27.58;18.15;;;;;;;;;;10317501;28;20092;-58
2021/03/04 20:06:35;;;;;;;21.75;14.45;;;;;;;;;;10317533;28;20064;-57
2021/03/04 20:11:32;;;;;;;17.85;10.25;;;;;;;;;;10317152;28;20083;-58
2021/03/04 20:16:30;;;;;;;18.95;12.60;;;;;;;;;;10317256;28;20045;-55
2021/03/04 20:21:28;;;;;;;14.60;9.48;;;;;;;;;;10314917;28;20045;-57
2021/03/04 20:26:26;;;;;;;15.73;10.30;;;;;;;;;;10316966;28;20041;-56
2021/03/04 20:31:25;;;;;;;12.55;9.65;;;;;;;;;;10315880;28;20098;-55
2021/03/04 20:36:24;;;;;;;11.40;9.10;;;;;;;;;;10315647;28;20049;-58
2021/03/04 20:41:22;;;;;;;11.77;8.90;;;;;;;;;;10319358;28;20055;-57
2021/03/04 20:46:21;;;;;;;13.85;9.07;;;;;;;;;;10323658;28;20055;-56
2021/03/04 20:51:19;;;;;;;12.55;8.88;;;;;;;;;;10324380;28;20080;-56
2021/03/04 20:56:17;;;;;;;11.05;8.40;;;;;;;;;;10322491;28;20494;-57
2021/03/04 21:01:14;;;;;;;12.20;10.75;;;;;;;;;;10323323;28;20072;-56
2021/03/04 21:06:12;;;;;;;11.23;9.57;;;;;;;;;;10323966;28;20086;-55
2021/03/04 21:11:09;;;;;;;12.75;9.68;;;;;;;;;;10323406;28;20084;-60
2021/03/04 21:16:08;;;;;;;31.20;16.60;;;;;;;;;;10323392;28;20049;-59
2021/03/04 21:21:06;;;;;;;21.40;12.68;;;;;;;;;;10323257;28;20045;-59
2021/03/04 21:26:05;;;;;;;28.50;16.98;;;;;;;;;;10323144;28;20048;-60
2021/03/04 21:31:02;;;;;;;27.70;15.63;;;;;;;;;;10322209;28;20095;-60
2021/03/04 21:36:06;;;;;;;19.17;12.27;;;;;;;;;;10321019;28;20425;-60
2021/03/04 21:41:04;;;;;;;23.50;14.40;;;;;;;;;;10322589;28;20044;-60
2021/03/04 21:46:01;;;;;;;14.45;11.98;;;;;;;;;;10322266;28;20540;-59
2021/03/04 21:50:58;;;;;;;13.50;11.75;;;;;;;;;;10321621;28;20107;-59
2021/03/04 21:55:57;;;;;;;15.32;11.80;;;;;;;;;;10322013;28;20532;-60
2021/03/04 22:00:55;;;;;;;11.15;9.85;;;;;;;;;;10321725;28;20044;-59
2021/03/04 22:05:52;;;;;;;20.95;12.13;;;;;;;;;;10321705;28;20036;-60
2021/03/04 22:10:50;;;;;;;16.08;11.07;;;;;;;;;;10321420;28;20376;-60
2021/03/04 22:15:48;;;;;;;14.63;11.45;;;;;;;;;;10321149;28;20064;-59
2021/03/04 22:20:46;;;;;;;16.95;11.88;;;;;;;;;;10320991;28;20045;-59
2021/03/04 22:25:46;;;;;;;16.42;11.63;;;;;;;;;;10320720;28;20083;-59
2021/03/04 22:30:44;;;;;;;19.73;12.73;;;;;;;;;;10319850;28;20092;-59
2021/03/04 22:35:42;;;;;;;21.75;12.02;;;;;;;;;;10319490;28;20071;-59
2021/03/04 22:40:40;;;;;;;21.95;12.63;;;;;;;;;;10318664;28;20044;-61
2021/03/04 22:45:37;;;;;;;21.77;13.05;;;;;;;;;;10319332;28;20040;-60
2021/03/04 22:50:34;;;;;;;20.00;12.18;;;;;;;;;;10319327;28;20079;-60
2021/03/04 22:55:33;;;;;;;21.90;14.57;;;;;;;;;;10317672;28;20048;-60
2021/03/04 23:00:30;;;;;;;25.48;14.27;;;;;;;;;;10319398;28;20075;-61
2021/03/04 23:05:28;;;;;;;21.15;12.60;;;;;;;;;;10318431;28;20418;-60
2021/03/04 23:10:26;;;;;;;28.92;15.80;;;;;;;;;;10318682;28;20502;-60
2021/03/04 23:15:24;;;;;;;24.90;12.68;;;;;;;;;;10318670;28;20044;-61
2021/03/04 23:20:22;;;;;;;22.92;13.13;;;;;;;;;;10317659;28;20064;-59
2021/03/04 23:25:22;;;;;;;23.55;14.63;;;;;;;;;;10318182;28;20047;-60
2021/03/04 23:30:22;;;;;;;23.08;15.40;;;;;;;;;;10317804;28;20092;-60
2021/03/04 23:35:20;;;;;;;19.63;13.60;;;;;;;;;;10318270;28;20106;-59
2021/03/04 23:40:19;;;;;;;22.58;13.07;;;;;;;;;;10317998;28;20052;-60
2021/03/04 23:45:17;;;;;;;29.02;15.40;;;;;;;;;;10318176;28;20040;-60
2021/03/04 23:50:15;;;;;;;28.00;16.25;;;;;;;;;;10317438;28;20083;-60
2021/03/04 23:55:14;;;;;;;26.38;15.35;;;;;;;;;;10317279;28;20397;-60
